createdAt,value
2023-07-12T00:00:17.417Z,511.00
2023-07-12T00:01:13.500Z,517.00
2023-07-12T00:02:08.316Z,518.00
2023-07-12T00:03:03.558Z,524.00
2023-07-12T00:04:01.618Z,524.00
2023-07-12T00:04:54.974Z,522.00
2023-07-12T00:05:50.109Z,515.00
2023-07-12T00:06:45.449Z,514.00
2023-07-12T00:07:44.488Z,514.00
2023-07-12T00:08:39.629Z,520.00
2023-07-12T00:09:35.034Z,513.00
2023-07-12T00:10:30.079Z,507.00
2023-07-12T00:11:25.311Z,513.00
2023-07-12T00:12:20.327Z,507.00
2023-07-12T00:13:16.443Z,510.00
2023-07-12T00:14:11.479Z,510.00
2023-07-12T00:15:06.817Z,510.00
2023-07-12T00:16:02.013Z,518.00
2023-07-12T00:16:57.204Z,513.00
2023-07-12T00:17:52.256Z,510.00
2023-07-12T00:18:47.340Z,518.00
2023-07-12T00:19:42.283Z,520.00
2023-07-12T00:20:37.301Z,520.00
2023-07-12T00:21:32.373Z,522.00
2023-07-12T00:22:27.435Z,517.00
2023-07-12T00:23:22.500Z,523.00
2023-07-12T00:24:17.497Z,522.00
2023-07-12T00:25:12.584Z,520.00
2023-07-12T00:26:07.733Z,519.00
2023-07-12T00:27:03.087Z,521.00
2023-07-12T00:27:57.896Z,525.00
2023-07-12T00:28:52.996Z,521.00
2023-07-12T00:29:48.060Z,523.00
2023-07-12T00:30:45.458Z,526.00
2023-07-12T00:31:40.621Z,522.00
2023-07-12T00:32:35.606Z,522.00
2023-07-12T00:33:30.643Z,518.00
2023-07-12T00:34:25.748Z,520.00
2023-07-12T00:35:20.741Z,525.00
2023-07-12T00:36:15.836Z,527.00
2023-07-12T00:37:11.023Z,530.00
2023-07-12T00:38:06.173Z,524.00
2023-07-12T00:39:01.259Z,527.00
2023-07-12T00:39:56.263Z,508.00
2023-07-12T00:40:51.247Z,508.00
2023-07-12T00:41:46.667Z,505.00
2023-07-12T00:42:45.737Z,502.00
2023-07-12T00:43:40.798Z,502.00
2023-07-12T00:44:35.982Z,500.00
2023-07-12T00:45:31.070Z,505.00
2023-07-12T00:46:26.345Z,503.00
2023-07-12T00:47:21.231Z,505.00
2023-07-12T00:48:16.282Z,500.00
2023-07-12T00:49:11.356Z,500.00
2023-07-12T00:50:06.429Z,502.00
2023-07-12T00:51:01.597Z,500.00
2023-07-12T00:51:56.857Z,504.00
2023-07-12T00:52:51.825Z,506.00
2023-07-12T00:53:46.899Z,502.00
2023-07-12T00:54:46.219Z,507.00
2023-07-12T00:55:41.218Z,503.00
2023-07-12T00:56:36.531Z,501.00
2023-07-12T00:57:31.566Z,506.00
2023-07-12T00:58:26.812Z,503.00
2023-07-12T00:59:21.856Z,505.00
2023-07-12T01:00:16.911Z,497.00
2023-07-12T01:01:12.061Z,500.00
2023-07-12T01:02:07.111Z,497.00
2023-07-12T01:03:02.189Z,498.00
2023-07-12T01:03:57.296Z,505.00
2023-07-12T01:04:52.128Z,502.00
2023-07-12T01:05:47.228Z,502.00
2023-07-12T01:06:42.262Z,505.00
2023-07-12T01:07:37.508Z,504.00
2023-07-12T01:08:32.976Z,507.00
2023-07-12T01:09:28.245Z,506.00
2023-07-12T01:10:23.981Z,507.00
2023-07-12T01:11:19.132Z,508.00
2023-07-12T01:12:14.493Z,505.00
2023-07-12T01:13:09.507Z,506.00
2023-07-12T01:14:04.800Z,509.00
2023-07-12T01:14:59.902Z,504.00
2023-07-12T01:15:54.968Z,504.00
2023-07-12T01:16:50.162Z,505.00
2023-07-12T01:17:48.421Z,505.00
2023-07-12T01:18:43.470Z,497.00
2023-07-12T01:19:38.671Z,497.00
2023-07-12T01:20:33.866Z,501.00
2023-07-12T01:21:28.890Z,508.00
2023-07-12T01:22:24.139Z,501.00
2023-07-12T01:23:19.041Z,503.00
2023-07-12T01:24:14.070Z,501.00
2023-07-12T01:25:09.159Z,506.00
2023-07-12T01:26:04.190Z,509.00
2023-07-12T01:27:02.056Z,505.00
2023-07-12T01:27:54.608Z,505.00
2023-07-12T01:28:49.641Z,512.00
2023-07-12T01:29:44.731Z,512.00
2023-07-12T01:30:39.774Z,509.00
2023-07-12T01:31:34.874Z,508.00
2023-07-12T01:32:29.872Z,516.00
2023-07-12T01:33:25.059Z,510.00
2023-07-12T01:34:20.387Z,516.00
2023-07-12T01:35:15.437Z,511.00
2023-07-12T01:36:10.459Z,514.00
2023-07-12T01:37:05.732Z,514.00
2023-07-12T01:38:00.629Z,514.00
2023-07-12T01:38:55.663Z,509.00
2023-07-12T01:39:50.723Z,516.00
2023-07-12T01:40:45.752Z,516.00
2023-07-12T01:41:40.806Z,513.00
2023-07-12T01:42:36.002Z,512.00
2023-07-12T01:43:30.913Z,518.00
2023-07-12T01:44:26.417Z,518.00
2023-07-12T01:45:21.584Z,519.00
2023-07-12T01:46:18.406Z,517.00
2023-07-12T01:47:13.190Z,523.00
2023-07-12T01:48:08.319Z,515.00
2023-07-12T01:49:04.028Z,512.00
2023-07-12T01:49:59.171Z,513.00
2023-07-12T01:50:54.251Z,522.00
2023-07-12T01:51:50.063Z,521.00
2023-07-12T01:52:45.307Z,518.00
2023-07-12T01:53:40.919Z,517.00
2023-07-12T01:54:36.099Z,520.00
2023-07-12T01:55:31.320Z,514.00
2023-07-12T01:56:27.053Z,511.00
2023-07-12T01:57:22.501Z,512.00
2023-07-12T01:58:17.388Z,512.00
2023-07-12T01:59:14.137Z,519.00
2023-07-12T02:00:09.306Z,519.00
2023-07-12T02:01:05.290Z,514.00
2023-07-12T02:02:00.450Z,513.00
2023-07-12T02:02:55.711Z,514.00
2023-07-12T02:03:51.541Z,522.00
2023-07-12T02:04:46.669Z,525.00
2023-07-12T02:05:42.534Z,517.00
2023-07-12T02:06:37.619Z,520.00
2023-07-12T02:07:32.942Z,524.00
2023-07-12T02:08:28.719Z,522.00
2023-07-12T02:09:23.906Z,524.00
2023-07-12T02:10:19.218Z,517.00
2023-07-12T02:11:15.252Z,512.00
2023-07-12T02:12:10.632Z,520.00
2023-07-12T02:13:06.237Z,511.00
2023-07-12T02:14:01.434Z,517.00
2023-07-12T02:14:56.730Z,511.00
2023-07-12T02:15:52.532Z,516.00
2023-07-12T02:16:47.694Z,513.00
2023-07-12T02:17:43.719Z,510.00
2023-07-12T02:18:38.771Z,512.00
2023-07-12T02:19:34.140Z,514.00
2023-07-12T02:20:29.750Z,518.00
2023-07-12T02:21:24.975Z,517.00
2023-07-12T02:22:20.149Z,513.00
2023-07-12T02:23:16.748Z,507.00
2023-07-12T02:24:11.808Z,511.00
2023-07-12T02:25:07.707Z,508.00
2023-07-12T02:26:02.834Z,512.00
2023-07-12T02:26:58.096Z,507.00
2023-07-12T02:27:53.859Z,502.00
2023-07-12T02:28:49.040Z,509.00
2023-07-12T02:29:44.243Z,513.00
2023-07-12T02:30:40.665Z,505.00
2023-07-12T02:31:35.951Z,513.00
2023-07-12T02:32:31.014Z,514.00
2023-07-12T02:33:27.608Z,512.00
2023-07-12T02:34:22.646Z,517.00
2023-07-12T02:35:18.549Z,521.00
2023-07-12T02:36:13.729Z,521.00
2023-07-12T02:38:32.595Z,529.00
2023-07-12T02:39:27.480Z,528.00
2023-07-12T02:40:22.677Z,525.00
2023-07-12T02:41:17.846Z,527.00
2023-07-12T02:42:12.976Z,528.00
2023-07-12T02:43:08.115Z,529.00
2023-07-12T02:44:03.337Z,530.00
2023-07-12T02:44:58.431Z,532.00
2023-07-12T02:45:53.627Z,533.00
2023-07-12T02:46:48.762Z,532.00
2023-07-12T02:47:43.974Z,534.00
2023-07-12T02:48:39.203Z,534.00
2023-07-12T02:49:34.463Z,533.00
2023-07-12T02:50:29.455Z,537.00
2023-07-12T02:51:24.660Z,541.00
2023-07-12T02:52:19.786Z,535.00
2023-07-12T02:53:14.980Z,540.00
2023-07-12T02:54:10.322Z,537.00
2023-07-12T02:55:05.395Z,539.00
2023-07-12T02:56:00.523Z,542.00
2023-07-12T02:56:55.732Z,543.00
2023-07-12T02:57:50.889Z,547.00
2023-07-12T02:58:46.355Z,548.00
2023-07-12T02:59:41.410Z,542.00
2023-07-12T03:00:36.454Z,541.00
2023-07-12T03:01:31.654Z,542.00
2023-07-12T03:02:26.850Z,541.00
2023-07-12T03:03:21.969Z,539.00
2023-07-12T03:04:17.210Z,537.00
2023-07-12T03:05:12.514Z,541.00
2023-07-12T03:06:07.543Z,540.00
2023-07-12T03:07:02.674Z,539.00
2023-07-12T03:07:57.859Z,538.00
2023-07-12T03:08:53.138Z,542.00
2023-07-12T03:09:48.379Z,536.00
2023-07-12T03:10:43.448Z,539.00
2023-07-12T03:11:38.694Z,542.00
2023-07-12T03:12:33.911Z,528.00
2023-07-12T03:13:29.138Z,818.00
2023-07-12T03:14:24.212Z,916.00
2023-07-12T03:15:21.192Z,797.00
2023-07-12T03:16:14.656Z,881.00
2023-07-12T03:17:09.957Z,787.00
2023-07-12T03:18:05.221Z,775.00
2023-07-12T03:19:00.687Z,864.00
2023-07-12T03:19:55.851Z,799.00
2023-07-12T03:20:50.942Z,714.00
2023-07-12T03:21:46.354Z,733.00
2023-07-12T03:22:41.329Z,649.00
2023-07-12T03:23:36.554Z,631.00
2023-07-12T03:24:31.822Z,639.00
2023-07-12T03:25:27.032Z,602.00
2023-07-12T03:26:22.252Z,592.00
2023-07-12T03:27:17.526Z,561.00
2023-07-12T03:28:12.726Z,600.00
2023-07-12T03:29:08.165Z,577.00
2023-07-12T03:30:03.445Z,568.00
2023-07-12T03:30:58.420Z,561.00
2023-07-12T03:31:53.737Z,551.00
2023-07-12T03:32:49.006Z,547.00
2023-07-12T03:33:44.324Z,536.00
2023-07-12T03:34:39.625Z,539.00
2023-07-12T03:35:35.101Z,538.00
2023-07-12T03:36:30.060Z,536.00
2023-07-12T03:37:25.360Z,548.00
2023-07-12T03:38:20.600Z,532.00
2023-07-12T03:39:16.017Z,532.00
2023-07-12T03:40:11.360Z,536.00
2023-07-12T03:41:06.925Z,535.00
2023-07-12T03:42:01.810Z,537.00
2023-07-12T03:42:57.150Z,536.00
2023-07-12T03:43:52.456Z,539.00
2023-07-12T03:44:47.812Z,536.00
2023-07-12T03:45:43.330Z,532.00
2023-07-12T03:46:38.413Z,529.00
2023-07-12T03:47:33.726Z,530.00
2023-07-12T03:48:28.965Z,530.00
2023-07-12T03:49:24.311Z,523.00
2023-07-12T03:50:19.599Z,529.00
2023-07-12T03:51:14.754Z,526.00
2023-07-12T03:52:10.125Z,526.00
2023-07-12T03:53:05.471Z,532.00
2023-07-12T03:54:00.832Z,531.00
2023-07-12T03:54:56.157Z,528.00
2023-07-12T03:55:51.545Z,531.00
2023-07-12T03:56:46.573Z,529.00
2023-07-12T03:57:41.968Z,535.00
2023-07-12T03:58:37.197Z,526.00
2023-07-12T03:59:32.744Z,537.00
2023-07-12T04:00:28.040Z,526.00
2023-07-12T04:01:23.339Z,531.00
2023-07-12T04:02:18.569Z,528.00
2023-07-12T04:03:14.062Z,535.00
2023-07-12T04:04:09.324Z,535.00
2023-07-12T04:05:04.734Z,535.00
2023-07-12T04:06:00.188Z,535.00
2023-07-12T04:06:55.421Z,537.00
2023-07-12T04:07:50.724Z,535.00
2023-07-12T04:08:46.333Z,538.00
2023-07-12T04:09:41.614Z,539.00
2023-07-12T04:10:37.032Z,538.00
2023-07-12T04:11:32.126Z,538.00
2023-07-12T04:12:27.559Z,540.00
2023-07-12T04:13:22.785Z,534.00
2023-07-12T04:14:18.188Z,536.00
2023-07-12T04:15:13.499Z,540.00
2023-07-12T04:16:09.108Z,541.00
2023-07-12T04:17:04.233Z,542.00
2023-07-12T04:18:00.005Z,552.00
2023-07-12T04:18:54.964Z,558.00
2023-07-12T04:19:50.502Z,545.00
2023-07-12T04:20:46.007Z,547.00
2023-07-12T04:21:41.190Z,552.00
2023-07-12T04:22:36.539Z,529.00
2023-07-12T04:23:31.876Z,543.00
2023-07-12T04:24:27.305Z,530.00
2023-07-12T04:25:22.605Z,530.00
2023-07-12T04:26:19.206Z,531.00
2023-07-12T04:27:13.351Z,528.00
2023-07-12T04:28:08.847Z,523.00
2023-07-12T04:29:04.263Z,537.00
2023-07-12T04:29:59.678Z,521.00
2023-07-12T04:30:55.207Z,521.00
2023-07-12T04:31:50.351Z,517.00
2023-07-12T04:32:45.724Z,514.00
2023-07-12T04:33:41.127Z,511.00
2023-07-12T04:34:39.315Z,519.00
2023-07-12T04:35:31.898Z,519.00
2023-07-12T04:36:27.343Z,518.00
2023-07-12T04:37:22.687Z,513.00
2023-07-12T04:38:18.008Z,507.00
2023-07-12T04:39:13.593Z,519.00
2023-07-12T04:40:09.013Z,513.00
2023-07-12T04:41:04.546Z,512.00
2023-07-12T04:41:59.667Z,515.00
2023-07-12T04:42:55.140Z,509.00
2023-07-12T04:43:50.417Z,506.00
2023-07-12T04:44:45.854Z,507.00
2023-07-12T04:45:41.153Z,504.00
2023-07-12T04:46:36.691Z,502.00
2023-07-12T04:47:32.048Z,508.00
2023-07-12T04:48:27.360Z,504.00
2023-07-12T04:49:22.684Z,508.00
2023-07-12T04:50:18.279Z,505.00
2023-07-12T04:51:13.667Z,502.00
2023-07-12T04:52:08.823Z,503.00
2023-07-12T04:53:04.246Z,513.00
2023-07-12T04:53:59.580Z,500.00
2023-07-12T04:54:54.963Z,504.00
2023-07-12T04:55:50.605Z,498.00
2023-07-12T04:56:45.861Z,501.00
2023-07-12T04:57:41.181Z,504.00
2023-07-12T04:58:36.490Z,504.00
2023-07-12T04:59:31.975Z,502.00
2023-07-12T05:00:27.387Z,513.00
2023-07-12T05:01:23.001Z,509.00
2023-07-12T05:02:18.078Z,503.00
2023-07-12T05:03:13.594Z,505.00
2023-07-12T05:04:08.936Z,508.00
2023-07-12T05:05:04.163Z,508.00
2023-07-12T05:06:09.817Z,519.00
2023-07-12T05:06:55.777Z,510.00
2023-07-12T05:07:50.109Z,520.00
2023-07-12T05:08:45.532Z,525.00
2023-07-12T05:09:40.854Z,531.00
2023-07-12T05:10:36.189Z,531.00
2023-07-12T05:11:31.429Z,529.00
2023-07-12T05:12:26.909Z,531.00
2023-07-12T05:13:22.122Z,531.00
2023-07-12T05:14:17.505Z,531.00
2023-07-12T05:15:12.776Z,532.00
2023-07-12T05:16:08.060Z,532.00
2023-07-12T05:17:03.446Z,520.00
2023-07-12T05:17:58.619Z,547.00
2023-07-12T05:18:53.945Z,531.00
2023-07-12T05:19:49.190Z,511.00
2023-07-12T05:20:44.460Z,522.00
2023-07-12T05:21:39.952Z,518.00
2023-07-12T05:22:35.384Z,513.00
2023-07-12T05:23:30.499Z,520.00
2023-07-12T05:24:28.494Z,514.00
2023-07-12T05:25:21.286Z,508.00
2023-07-12T05:26:16.518Z,505.00
2023-07-12T05:27:12.076Z,514.00
2023-07-12T05:28:07.219Z,520.00
2023-07-12T05:29:02.730Z,519.00
2023-07-12T05:29:58.070Z,528.00
2023-07-12T05:30:53.543Z,526.00
2023-07-12T05:31:48.770Z,544.00
2023-07-12T05:32:44.178Z,535.00
2023-07-12T05:33:39.407Z,531.00
2023-07-12T05:34:34.670Z,527.00
2023-07-12T05:35:30.119Z,530.00
2023-07-12T05:36:25.429Z,534.00
2023-07-12T05:37:20.876Z,538.00
2023-07-12T05:38:16.044Z,537.00
2023-07-12T05:39:11.541Z,534.00
2023-07-12T05:40:06.863Z,525.00
2023-07-12T05:41:02.220Z,546.00
2023-07-12T05:41:57.916Z,541.00
2023-07-12T05:42:53.036Z,535.00
2023-07-12T05:43:48.344Z,547.00
2023-07-12T05:44:43.585Z,566.00
2023-07-12T05:45:39.109Z,553.00
2023-07-12T05:46:34.538Z,550.00
2023-07-12T05:47:29.684Z,535.00
2023-07-12T05:48:24.900Z,530.00
2023-07-12T05:49:20.321Z,543.00
2023-07-12T05:50:15.584Z,559.00
2023-07-12T05:51:11.347Z,529.00
2023-07-12T05:52:06.447Z,553.00
2023-07-12T05:53:02.031Z,540.00
2023-07-12T05:53:57.083Z,546.00
2023-07-12T05:54:52.584Z,527.00
2023-07-12T05:55:47.843Z,552.00
2023-07-12T05:56:43.351Z,563.00
2023-07-12T05:57:38.702Z,553.00
2023-07-12T05:58:34.045Z,559.00
2023-07-12T05:59:29.402Z,567.00
2023-07-12T06:00:24.816Z,552.00
2023-07-12T06:01:20.120Z,563.00
2023-07-12T06:02:15.996Z,547.00
2023-07-12T06:03:11.189Z,554.00
2023-07-12T06:04:06.649Z,534.00
2023-07-12T06:05:01.804Z,516.00
2023-07-12T06:05:57.416Z,515.00
2023-07-12T06:06:52.534Z,533.00
2023-07-12T06:07:48.143Z,514.00
2023-07-12T06:08:43.289Z,526.00
2023-07-12T06:09:38.736Z,509.00
2023-07-12T06:10:34.019Z,519.00
2023-07-12T06:11:29.344Z,507.00
2023-07-12T06:12:24.801Z,510.00
2023-07-12T06:13:20.013Z,506.00
2023-07-12T06:14:15.323Z,509.00
2023-07-12T06:15:10.915Z,502.00
2023-07-12T06:16:06.375Z,511.00
2023-07-12T06:17:01.764Z,511.00
2023-07-12T06:17:57.131Z,516.00
2023-07-12T06:18:52.387Z,519.00
2023-07-12T06:19:47.719Z,514.00
2023-07-12T06:20:43.255Z,514.00
2023-07-12T06:21:38.541Z,511.00
2023-07-12T06:22:33.866Z,512.00
2023-07-12T06:23:29.164Z,516.00
2023-07-12T06:24:24.663Z,502.00
2023-07-12T06:25:19.979Z,506.00
2023-07-12T06:26:15.733Z,520.00
2023-07-12T06:27:11.040Z,505.00
2023-07-12T06:28:06.513Z,509.00
2023-07-12T06:29:01.703Z,505.00
2023-07-12T06:29:57.187Z,496.00
2023-07-12T06:30:52.510Z,500.00
2023-07-12T06:31:47.938Z,523.00
2023-07-12T06:32:43.277Z,519.00
2023-07-12T06:33:38.722Z,523.00
2023-07-12T06:34:34.045Z,519.00
2023-07-12T06:35:29.539Z,515.00
2023-07-12T06:36:25.027Z,524.00
2023-07-12T06:37:20.171Z,522.00
2023-07-12T06:38:15.674Z,531.00
2023-07-12T06:39:10.878Z,527.00
2023-07-12T06:40:06.364Z,520.00
2023-07-12T06:41:01.743Z,526.00
2023-07-12T06:41:57.099Z,521.00
2023-07-12T06:42:52.751Z,515.00
2023-07-12T06:43:48.108Z,515.00
2023-07-12T06:44:43.469Z,517.00
2023-07-12T06:45:38.782Z,523.00
2023-07-12T06:46:34.469Z,524.00
2023-07-12T06:47:29.635Z,519.00
2023-07-12T06:48:25.198Z,521.00
2023-07-12T06:49:20.570Z,516.00
2023-07-12T06:50:15.806Z,520.00
2023-07-12T06:51:11.371Z,520.00
2023-07-12T06:52:06.697Z,520.00
2023-07-12T06:53:02.302Z,522.00
2023-07-12T06:53:57.367Z,523.00
2023-07-12T06:54:52.783Z,512.00
2023-07-12T06:55:48.261Z,518.00
2023-07-12T06:56:43.568Z,519.00
2023-07-12T06:57:38.952Z,521.00
2023-07-12T06:58:34.288Z,531.00
2023-07-12T06:59:29.635Z,515.00
2023-07-12T07:00:24.984Z,519.00
2023-07-12T07:01:20.475Z,519.00
2023-07-12T07:02:15.931Z,511.00
2023-07-12T07:03:11.428Z,513.00
2023-07-12T07:04:06.547Z,512.00
2023-07-12T07:05:01.886Z,529.00
2023-07-12T07:06:00.022Z,515.00
2023-07-12T07:06:52.557Z,518.00
2023-07-12T07:07:47.903Z,516.00
2023-07-12T07:08:43.387Z,513.00
2023-07-12T07:09:38.675Z,521.00
2023-07-12T07:10:34.079Z,513.00
2023-07-12T07:11:29.433Z,518.00
2023-07-12T07:12:25.102Z,514.00
2023-07-12T07:13:20.654Z,516.00
2023-07-12T07:14:15.867Z,511.00
2023-07-12T07:15:11.522Z,507.00
2023-07-12T07:16:06.744Z,513.00
2023-07-12T07:17:02.046Z,514.00
2023-07-12T07:17:57.512Z,517.00
2023-07-12T07:18:52.895Z,516.00
2023-07-12T07:19:48.251Z,516.00
2023-07-12T07:20:45.880Z,515.00
2023-07-12T07:21:39.112Z,512.00
2023-07-12T07:22:34.712Z,514.00
2023-07-12T07:23:30.277Z,519.00
2023-07-12T07:24:25.613Z,518.00
2023-07-12T07:25:21.916Z,517.00
2023-07-12T07:26:16.686Z,510.00
2023-07-12T07:27:12.092Z,509.00
2023-07-12T07:28:07.550Z,522.00
2023-07-12T07:29:03.117Z,516.00
2023-07-12T07:29:58.258Z,514.00
2023-07-12T07:30:53.766Z,510.00
2023-07-12T07:31:49.130Z,510.00
2023-07-12T07:32:44.888Z,511.00
2023-07-12T07:33:40.396Z,517.00
2023-07-12T07:34:35.606Z,513.00
2023-07-12T07:35:30.992Z,512.00
2023-07-12T07:36:26.369Z,513.00
2023-07-12T07:37:21.919Z,482.00
2023-07-12T07:38:17.269Z,496.00
2023-07-12T07:39:12.970Z,491.00
2023-07-12T07:40:08.064Z,490.00
2023-07-12T07:41:03.540Z,492.00
2023-07-12T07:41:58.930Z,492.00
2023-07-12T07:42:54.232Z,494.00
2023-07-12T07:43:49.594Z,493.00
2023-07-12T07:44:44.944Z,494.00
2023-07-12T07:45:40.404Z,489.00
2023-07-12T07:46:35.804Z,493.00
2023-07-12T07:47:31.547Z,489.00
2023-07-12T07:48:26.789Z,492.00
2023-07-12T07:49:22.436Z,498.00
2023-07-12T07:50:17.628Z,502.00
2023-07-12T07:51:13.309Z,496.00
2023-07-12T07:52:08.737Z,496.00
2023-07-12T07:53:04.333Z,492.00
2023-07-12T07:53:59.888Z,494.00
2023-07-12T07:54:55.205Z,491.00
2023-07-12T07:55:50.740Z,496.00
2023-07-12T07:56:46.542Z,492.00
2023-07-12T07:57:41.832Z,492.00
2023-07-12T07:58:37.142Z,488.00
2023-07-12T07:59:32.817Z,498.00
2023-07-12T08:00:27.967Z,489.00
2023-07-12T08:01:23.307Z,492.00
2023-07-12T08:02:18.761Z,493.00
2023-07-12T08:03:14.184Z,494.00
2023-07-12T08:04:10.103Z,497.00
2023-07-12T08:05:05.001Z,498.00
2023-07-12T08:06:02.957Z,497.00
2023-07-12T08:06:55.958Z,497.00
2023-07-12T08:07:51.515Z,499.00
2023-07-12T08:08:47.081Z,491.00
2023-07-12T08:09:42.480Z,505.00
2023-07-12T08:10:37.744Z,494.00
2023-07-12T08:11:34.924Z,492.00
2023-07-12T08:12:28.937Z,488.00
2023-07-12T08:13:24.252Z,486.00
2023-07-12T08:14:19.629Z,491.00
2023-07-12T08:15:15.281Z,502.00
2023-07-12T08:16:10.615Z,493.00
2023-07-12T08:17:05.968Z,493.00
2023-07-12T08:18:01.499Z,491.00
2023-07-12T08:18:56.834Z,494.00
2023-07-12T08:19:52.244Z,443.00
2023-07-12T08:20:47.647Z,450.00
2023-07-12T08:21:43.170Z,448.00
2023-07-12T08:22:38.592Z,436.00
2023-07-12T08:23:34.240Z,449.00
2023-07-12T08:24:32.042Z,469.00
2023-07-12T08:25:25.135Z,446.00
2023-07-12T08:26:20.537Z,448.00
2023-07-12T08:27:16.126Z,445.00
2023-07-12T08:28:11.815Z,448.00
2023-07-12T08:29:07.107Z,447.00
2023-07-12T08:30:02.499Z,450.00
2023-07-12T08:30:58.014Z,449.00
2023-07-12T08:31:53.734Z,450.00
2023-07-12T08:32:49.330Z,455.00
2023-07-12T08:33:44.880Z,444.00
2023-07-12T08:34:40.170Z,444.00
2023-07-12T08:35:46.792Z,445.00
2023-07-12T08:36:32.202Z,447.00
2023-07-12T08:37:26.523Z,446.00
2023-07-12T08:39:45.458Z,435.00
2023-07-12T08:40:40.614Z,435.00
2023-07-12T08:41:36.095Z,431.00
2023-07-12T08:42:31.381Z,432.00
2023-07-12T08:43:27.079Z,438.00
2023-07-12T08:44:22.332Z,433.00
2023-07-12T08:45:17.470Z,441.00
2023-07-12T08:46:12.960Z,438.00
2023-07-12T08:47:08.442Z,430.00
2023-07-12T08:48:03.765Z,441.00
2023-07-12T08:48:59.169Z,432.00
2023-07-12T08:49:54.870Z,439.00
2023-07-12T08:50:50.029Z,436.00
2023-07-12T08:51:45.581Z,433.00
2023-07-12T08:52:41.021Z,433.00
2023-07-12T08:53:36.713Z,441.00
2023-07-12T08:54:31.854Z,433.00
2023-07-12T08:55:27.311Z,435.00
2023-07-12T08:56:22.703Z,428.00
2023-07-12T08:57:18.164Z,433.00
2023-07-12T08:58:14.024Z,432.00
2023-07-12T08:59:09.291Z,443.00
2023-07-12T09:00:04.554Z,411.00
2023-07-12T09:01:00.105Z,421.00
2023-07-12T09:01:55.546Z,423.00
2023-07-12T09:02:51.045Z,423.00
2023-07-12T09:03:46.401Z,434.00
2023-07-12T09:04:41.853Z,422.00
2023-07-12T09:05:37.535Z,423.00
2023-07-12T09:06:32.834Z,418.00
2023-07-12T09:07:28.246Z,419.00
2023-07-12T09:08:23.866Z,422.00
2023-07-12T09:09:19.179Z,421.00
2023-07-12T09:10:14.649Z,424.00
2023-07-12T09:11:10.221Z,426.00
2023-07-12T09:12:05.830Z,420.00
2023-07-12T09:13:01.341Z,425.00
2023-07-12T09:13:56.517Z,428.00
2023-07-12T09:14:51.885Z,426.00
2023-07-12T09:15:47.488Z,426.00
2023-07-12T09:16:43.060Z,419.00
2023-07-12T09:17:38.535Z,420.00
2023-07-12T09:18:34.173Z,425.00
2023-07-12T09:19:29.499Z,425.00
2023-07-12T09:20:24.933Z,419.00
2023-07-12T09:21:20.462Z,421.00
2023-07-12T09:22:15.697Z,424.00
2023-07-12T09:23:11.170Z,430.00
2023-07-12T09:24:06.891Z,440.00
2023-07-12T09:25:02.077Z,430.00
2023-07-12T09:25:57.586Z,422.00
2023-07-12T09:26:53.066Z,422.00
2023-07-12T09:27:48.310Z,427.00
2023-07-12T09:28:44.190Z,420.00
2023-07-12T09:29:39.226Z,419.00
2023-07-12T09:30:34.785Z,424.00
2023-07-12T09:31:30.089Z,421.00
2023-07-12T09:32:25.672Z,421.00
2023-07-12T09:33:21.675Z,417.00
2023-07-12T09:34:16.763Z,420.00
2023-07-12T09:35:12.190Z,419.00
2023-07-12T09:36:07.724Z,416.00
2023-07-12T09:37:03.145Z,421.00
2023-07-12T09:37:58.628Z,422.00
2023-07-12T09:38:54.026Z,418.00
2023-07-12T09:39:49.725Z,417.00
2023-07-12T09:40:44.869Z,418.00
2023-07-12T09:41:40.429Z,420.00
2023-07-12T09:42:35.891Z,417.00
2023-07-12T09:43:31.442Z,421.00
2023-07-12T09:44:26.899Z,410.00
2023-07-12T09:45:22.338Z,424.00
2023-07-12T09:46:17.723Z,419.00
2023-07-12T09:47:13.239Z,413.00
2023-07-12T09:48:08.793Z,415.00
2023-07-12T09:49:04.067Z,428.00
2023-07-12T09:49:59.662Z,430.00
2023-07-12T09:50:54.985Z,426.00
2023-07-12T09:51:50.414Z,415.00
2023-07-12T09:52:45.988Z,429.00
2023-07-12T09:53:41.269Z,425.00
2023-07-12T09:54:37.052Z,424.00
2023-07-12T09:55:32.072Z,413.00
2023-07-12T09:56:27.502Z,412.00
2023-07-12T09:57:22.948Z,423.00
2023-07-12T09:58:18.544Z,414.00
2023-07-12T09:59:14.263Z,419.00
2023-07-12T10:00:09.705Z,418.00
2023-07-12T10:01:05.167Z,424.00
2023-07-12T10:02:00.638Z,426.00
2023-07-12T10:02:56.062Z,417.00
2023-07-12T10:03:51.509Z,421.00
2023-07-12T10:04:47.002Z,420.00
2023-07-12T10:05:42.354Z,423.00
2023-07-12T10:06:37.938Z,419.00
2023-07-12T10:07:33.179Z,416.00
2023-07-12T10:08:28.764Z,412.00
2023-07-12T10:09:24.082Z,438.00
2023-07-12T10:10:19.746Z,419.00
2023-07-12T10:11:15.269Z,411.00
2023-07-12T10:12:10.643Z,411.00
2023-07-12T10:13:06.003Z,410.00
2023-07-12T10:14:01.611Z,405.00
2023-07-12T10:14:57.370Z,407.00
2023-07-12T10:15:52.715Z,414.00
2023-07-12T10:16:48.126Z,413.00
2023-07-12T10:17:43.648Z,411.00
2023-07-12T10:18:39.092Z,424.00
2023-07-12T10:19:34.579Z,426.00
2023-07-12T10:20:29.858Z,415.00
2023-07-12T10:21:25.383Z,434.00
2023-07-12T10:22:20.803Z,415.00
2023-07-12T10:23:16.157Z,424.00
2023-07-12T10:24:11.614Z,423.00
2023-07-12T10:25:07.026Z,426.00
2023-07-12T10:26:02.385Z,423.00
2023-07-12T10:26:57.772Z,422.00
2023-07-12T10:27:53.197Z,422.00
2023-07-12T10:28:49.917Z,418.00
2023-07-12T10:29:44.208Z,424.00
2023-07-12T10:30:39.469Z,426.00
2023-07-12T10:31:35.035Z,417.00
2023-07-12T10:32:30.425Z,416.00
2023-07-12T10:33:25.933Z,418.00
2023-07-12T10:34:21.679Z,431.00
2023-07-12T10:35:17.176Z,435.00
2023-07-12T10:36:12.400Z,422.00
2023-07-12T10:37:07.964Z,424.00
2023-07-12T10:38:04.212Z,435.00
2023-07-12T10:38:59.612Z,432.00
2023-07-12T10:39:55.157Z,418.00
2023-07-12T10:40:50.615Z,416.00
2023-07-12T10:41:45.862Z,415.00
2023-07-12T10:42:41.420Z,412.00
2023-07-12T10:43:36.861Z,410.00
2023-07-12T10:44:32.322Z,411.00
2023-07-12T10:45:27.732Z,410.00
2023-07-12T10:46:23.328Z,411.00
2023-07-12T10:47:18.131Z,415.00
2023-07-12T10:48:13.191Z,404.00
2023-07-12T10:49:08.183Z,405.00
2023-07-12T10:50:03.559Z,407.00
2023-07-12T10:50:58.387Z,421.00
2023-07-12T10:51:53.403Z,414.00
2023-07-12T10:52:48.488Z,415.00
2023-07-12T10:53:46.394Z,410.00
2023-07-12T10:54:41.109Z,415.00
2023-07-12T10:55:36.547Z,412.00
2023-07-12T10:56:31.341Z,416.00
2023-07-12T10:57:26.409Z,419.00
2023-07-12T10:58:21.506Z,421.00
2023-07-12T10:59:16.583Z,422.00
2023-07-12T11:00:11.712Z,434.00
2023-07-12T11:01:07.041Z,416.00
2023-07-12T11:02:01.914Z,411.00
2023-07-12T11:02:56.947Z,414.00
2023-07-12T11:03:52.041Z,429.00
2023-07-12T11:04:47.044Z,421.00
2023-07-12T11:05:42.118Z,420.00
2023-07-12T11:06:37.382Z,416.00
2023-07-12T11:07:32.648Z,412.00
2023-07-12T11:08:28.032Z,403.00
2023-07-12T11:09:23.866Z,410.00
2023-07-12T11:10:19.263Z,474.00
2023-07-12T11:11:14.880Z,417.00
2023-07-12T11:12:10.269Z,420.00
2023-07-12T11:13:05.754Z,406.00
2023-07-12T11:14:01.175Z,409.00
2023-07-12T11:14:56.754Z,410.00
2023-07-12T11:15:52.072Z,412.00
2023-07-12T11:16:51.727Z,408.00
2023-07-12T11:17:46.966Z,405.00
2023-07-12T11:18:42.488Z,404.00
2023-07-12T11:19:38.103Z,409.00
2023-07-12T11:20:33.640Z,410.00
2023-07-12T11:21:29.322Z,409.00
2023-07-12T11:22:24.701Z,409.00
2023-07-12T11:23:20.135Z,400.00
2023-07-12T11:24:15.654Z,401.00
2023-07-12T11:25:11.000Z,402.00
2023-07-12T11:26:06.427Z,405.00
2023-07-12T11:27:01.609Z,409.00
2023-07-12T11:27:56.445Z,410.00
2023-07-12T11:28:51.666Z,412.00
2023-07-12T11:29:46.734Z,405.00
2023-07-12T11:30:41.818Z,410.00
2023-07-12T11:31:37.142Z,405.00
2023-07-12T11:32:31.933Z,418.00
2023-07-12T11:33:27.046Z,423.00